Time;durP1;ratioP1;P1;durP2;ratioP2;P2;SDS_P1;SDS_P2;PMS_P1;PMS_P2;Temp;Humidity;BMP_temperature;BMP_pressure;BME280_temperature;BME280_humidity;BME280_pressure;Samples;Min_cycle;Max_cycle;Signal;HPM_P1;HPM_P2
2023/01/27 00:00:18;;;;;;;31.57;20.63;;;3.30;99.90;;;;;;5085829;27;20565;-63
2023/01/27 00:03:07;;;;;;;32.97;20.10;;;3.40;99.90;;;;;;5084399;28;20234;-65
2023/01/27 00:05:57;;;;;;;34.77;20.50;;;3.40;99.90;;;;;;5085156;28;20242;-62
2023/01/27 00:08:46;;;;;;;31.37;19.43;;;3.40;99.90;;;;;;5084561;27;20215;-63
2023/01/27 00:14:42;;;;;;;33.27;19.83;;;3.30;99.90;;;;;;5089159;27;20221;-63
2023/01/27 00:17:31;;;;;;;31.73;20.27;;;3.30;99.90;;;;;;5092281;28;20230;-66
2023/01/27 00:24:34;;;;;;;31.40;19.67;;;3.40;99.90;;;;;;5088018;28;20218;-64
2023/01/27 00:26:36;;;;;;;31.13;20.47;;;3.50;99.90;;;;;;5093359;27;20251;-64
2023/01/27 00:29:25;;;;;;;27.13;18.47;;;3.40;99.90;;;;;;5099952;27;20230;-62
2023/01/27 00:35:21;;;;;;;32.17;19.10;;;3.40;99.90;;;;;;5093909;28;20218;-64
2023/01/27 00:38:10;;;;;;;28.70;18.03;;;3.40;99.90;;;;;;5090414;27;20717;-65
2023/01/27 00:41:19;;;;;;;28.43;18.67;;;3.50;99.90;;;;;;5102221;27;20248;-63
2023/01/27 00:44:11;;;;;;;29.17;18.27;;;3.50;99.90;;;;;;5083367;28;20246;-64
2023/01/27 00:47:01;;;;;;;27.93;18.50;;;3.40;99.90;;;;;;5090357;28;20229;-64
2023/01/27 00:49:51;;;;;;;31.90;18.63;;;3.30;99.90;;;;;;5092813;28;20601;-65
2023/01/27 00:52:40;;;;;;;27.77;17.53;;;3.20;99.90;;;;;;5090130;27;20254;-65
2023/01/27 00:55:30;;;;;;;27.87;18.13;;;3.20;99.90;;;;;;5096271;28;20221;-66
2023/01/27 00:58:21;;;;;;;25.13;17.13;;;3.20;99.90;;;;;;5090049;28;20313;-65
2023/01/27 01:01:13;;;;;;;25.93;16.97;;;3.10;99.90;;;;;;5118800;27;20947;-65
2023/01/27 01:04:02;;;;;;;25.70;16.90;;;3.10;99.90;;;;;;5106641;27;20873;-64
2023/01/27 01:06:53;;;;;;;25.90;16.80;;;3.30;99.90;;;;;;5118215;27;20810;-65
2023/01/27 01:09:41;;;;;;;24.97;17.00;;;3.20;99.90;;;;;;5123591;27;20226;-64
2023/01/27 01:12:30;;;;;;;26.07;16.90;;;3.30;99.90;;;;;;5090277;27;20237;-65
2023/01/27 01:15:19;;;;;;;24.80;16.50;;;3.50;99.90;;;;;;5089904;28;20227;-65
2023/01/27 01:18:09;;;;;;;27.03;16.97;;;3.30;99.90;;;;;;5100872;27;20308;-63
2023/01/27 01:20:58;;;;;;;26.93;16.73;;;3.20;99.90;;;;;;5086756;27;20252;-65
2023/01/27 01:23:48;;;;;;;26.03;17.33;;;3.30;99.90;;;;;;5088461;28;20230;-64
2023/01/27 01:26:37;;;;;;;28.27;17.50;;;3.20;99.90;;;;;;5088725;28;20227;-65
2023/01/27 01:29:26;;;;;;;32.17;18.43;;;3.30;99.90;;;;;;5091255;28;20223;-65
2023/01/27 01:32:15;;;;;;;28.70;18.27;;;3.20;99.90;;;;;;5091216;28;20215;-65
2023/01/27 01:35:04;;;;;;;26.80;17.23;;;3.20;99.90;;;;;;5090599;27;20315;-67
2023/01/27 01:37:53;;;;;;;31.23;19.63;;;3.10;99.90;;;;;;5093087;27;20288;-64
2023/01/27 01:40:44;;;;;;;29.93;18.53;;;3.10;99.90;;;;;;5090902;27;20257;-64
2023/01/27 01:43:33;;;;;;;30.07;19.40;;;3.20;99.90;;;;;;5094153;27;20296;-68
2023/01/27 01:46:22;;;;;;;32.77;20.50;;;3.20;99.90;;;;;;5093595;28;20237;-65
2023/01/27 01:49:11;;;;;;;34.33;20.37;;;3.20;99.90;;;;;;5099263;27;20297;-64
2023/01/27 01:52:05;;;;;;;32.00;21.03;;;3.40;99.90;;;;;;5088392;27;20235;-64
2023/01/27 01:54:57;;;;;;;33.57;20.93;;;3.30;99.90;;;;;;5098130;27;20226;-63
2023/01/27 01:57:47;;;;;;;35.77;20.73;;;3.30;99.90;;;;;;5092211;28;20225;-65
2023/01/27 02:00:37;;;;;;;32.93;20.77;;;3.30;99.90;;;;;;5097755;27;20660;-65
2023/01/27 02:03:27;;;;;;;35.10;20.67;;;3.30;99.90;;;;;;5090567;28;20248;-64
2023/01/27 02:06:20;;;;;;;34.43;21.07;;;3.30;99.90;;;;;;5098700;27;20295;-65
2023/01/27 02:09:10;;;;;;;33.63;20.30;;;3.30;99.90;;;;;;5104375;27;20295;-65
2023/01/27 02:12:00;;;;;;;34.33;20.57;;;3.30;99.90;;;;;;5092740;28;20224;-66
2023/01/27 02:14:50;;;;;;;34.07;20.13;;;3.40;99.90;;;;;;5090789;28;20218;-66
2023/01/27 02:17:42;;;;;;;32.63;19.80;;;3.30;99.90;;;;;;5094770;27;20564;-66
2023/01/27 02:20:37;;;;;;;34.43;20.50;;;3.20;99.90;;;;;;5102218;27;20860;-65
2023/01/27 02:23:36;;;;;;;33.53;20.93;;;3.30;99.90;;;;;;5100743;27;20222;-66
2023/01/27 02:26:31;;;;;;;35.20;20.70;;;3.20;99.90;;;;;;5089719;28;20219;-65
2023/01/27 02:29:21;;;;;;;31.70;20.13;;;3.10;99.90;;;;;;5092809;27;20352;-65
2023/01/27 02:32:23;;;;;;;37.03;21.07;;;3.20;99.90;;;;;;5086473;28;20223;-65
2023/01/27 02:35:19;;;;;;;33.00;20.63;;;3.10;99.90;;;;;;5095236;27;20229;-65
2023/01/27 02:38:11;;;;;;;36.73;21.33;;;3.20;99.90;;;;;;5093231;27;20376;-66
2023/01/27 02:41:04;;;;;;;34.77;20.47;;;3.30;99.90;;;;;;5099293;27;20927;-67
2023/01/27 02:43:55;;;;;;;34.63;21.33;;;3.40;99.90;;;;;;5090814;27;20371;-66
2023/01/27 02:46:44;;;;;;;37.40;20.77;;;3.30;99.90;;;;;;5088489;27;20215;-66
2023/01/27 02:49:33;;;;;;;34.53;20.40;;;3.30;99.90;;;;;;5091821;28;20231;-65
2023/01/27 02:52:23;;;;;;;36.20;21.43;;;3.30;99.90;;;;;;5117884;27;20301;-65
2023/01/27 02:55:13;;;;;;;34.40;21.00;;;3.30;99.90;;;;;;5094311;27;20269;-66
2023/01/27 02:58:02;;;;;;;35.00;20.60;;;3.40;99.90;;;;;;5090674;28;20774;-67
2023/01/27 03:01:00;;;;;;;34.80;21.30;;;3.40;99.90;;;;;;5094009;27;20241;-66
2023/01/27 03:03:50;;;;;;;34.00;19.93;;;3.20;99.90;;;;;;5092580;27;20229;-64
2023/01/27 03:06:39;;;;;;;35.03;21.03;;;3.50;99.90;;;;;;5089833;27;20215;-66
2023/01/27 03:09:30;;;;;;;34.20;20.60;;;3.30;99.90;;;;;;5095250;28;20301;-66
2023/01/27 03:12:21;;;;;;;34.67;20.37;;;3.30;99.90;;;;;;5089843;27;20721;-69
2023/01/27 03:18:20;;;;;;;34.13;20.67;;;3.40;99.90;;;;;;5089773;27;20225;-68
2023/01/27 03:21:10;;;;;;;36.63;20.43;;;3.50;99.90;;;;;;5086900;28;20739;-67
2023/01/27 03:23:59;;;;;;;32.57;20.60;;;3.30;99.90;;;;;;5096959;27;20322;-68
2023/01/27 03:26:48;;;;;;;33.97;21.13;;;3.30;99.90;;;;;;5097519;27;20233;-67
2023/01/27 03:29:57;;;;;;;34.70;20.47;;;3.40;99.90;;;;;;5090671;27;20223;-67
2023/01/27 03:32:50;;;;;;;29.40;19.27;;;3.40;99.90;;;;;;5092805;27;20330;-68
2023/01/27 03:48:38;;;;;;;36.07;21.77;;;3.30;99.90;;;;;;5088531;27;20214;-65
2023/01/27 03:51:28;;;;;;;39.30;21.30;;;3.40;99.90;;;;;;5089591;28;20223;-66
2023/01/27 03:54:17;;;;;;;30.97;20.03;;;3.40;99.90;;;;;;5103086;27;20219;-65
2023/01/27 03:57:06;;;;;;;33.57;19.93;;;3.40;99.90;;;;;;5093670;27;20710;-66
2023/01/27 04:00:00;;;;;;;32.97;20.10;;;3.30;99.90;;;;;;5094453;27;20256;-65
2023/01/27 04:09:05;;;;;;;34.93;20.07;;;3.50;99.90;;;;;;5097373;27;20215;-66
2023/01/27 04:11:54;;;;;;;34.40;20.73;;;3.60;99.90;;;;;;5096289;27;20294;-66
2023/01/27 04:14:44;;;;;;;32.50;19.43;;;3.50;99.90;;;;;;5093146;27;20701;-65
2023/01/27 04:17:37;;;;;;;35.40;20.73;;;3.60;99.90;;;;;;5100681;27;20225;-65
2023/01/27 04:20:26;;;;;;;31.67;19.80;;;3.60;99.90;;;;;;5095277;28;20219;-63
2023/01/27 04:23:15;;;;;;;33.17;19.13;;;3.70;99.90;;;;;;5092871;27;20227;-65
2023/01/27 04:26:05;;;;;;;30.57;18.27;;;3.70;99.90;;;;;;5091716;27;20236;-65
2023/01/27 04:28:54;;;;;;;26.97;16.93;;;3.70;99.90;;;;;;5095357;27;20702;-64
2023/01/27 04:31:43;;;;;;;27.83;18.17;;;3.50;99.90;;;;;;5098188;27;20210;-65
2023/01/27 04:34:32;;;;;;;29.43;18.17;;;3.60;99.90;;;;;;5102022;27;20221;-65
2023/01/27 04:37:21;;;;;;;32.73;20.40;;;3.70;99.90;;;;;;5095364;28;20541;-65
2023/01/27 04:40:11;;;;;;;34.07;21.10;;;3.60;99.90;;;;;;5088092;28;20225;-63
2023/01/27 04:43:01;;;;;;;35.20;20.83;;;3.60;99.90;;;;;;5096208;27;20249;-65
2023/01/27 04:45:50;;;;;;;35.67;21.03;;;3.60;99.90;;;;;;5096066;27;20658;-65
2023/01/27 04:48:38;;;;;;;40.93;23.53;;;3.60;99.90;;;;;;5088328;28;20704;-66
2023/01/27 04:51:27;;;;;;;43.80;25.47;;;3.50;99.90;;;;;;5129451;27;20227;-64
2023/01/27 04:54:16;;;;;;;50.17;28.40;;;3.30;99.90;;;;;;5091371;27;20324;-66
2023/01/27 04:57:04;;;;;;;59.63;33.47;;;3.20;99.90;;;;;;5092594;27;20311;-65
2023/01/27 04:59:55;;;;;;;62.67;35.40;;;3.30;99.90;;;;;;5100431;27;20221;-65
2023/01/27 05:02:44;;;;;;;61.70;34.30;;;3.40;99.90;;;;;;5107925;27;20231;-67
2023/01/27 05:05:33;;;;;;;69.10;35.60;;;3.40;99.90;;;;;;5096703;27;20237;-64
2023/01/27 05:08:22;;;;;;;67.97;37.60;;;3.50;99.90;;;;;;5117876;27;20227;-66
2023/01/27 05:11:11;;;;;;;67.57;37.40;;;3.30;99.90;;;;;;5108852;27;20218;-66
2023/01/27 05:14:00;;;;;;;69.23;37.53;;;3.20;99.90;;;;;;5091548;27;20230;-67
2023/01/27 05:16:54;;;;;;;70.73;38.73;;;3.10;99.90;;;;;;5097550;27;20219;-66
2023/01/27 05:19:43;;;;;;;73.87;37.90;;;3.20;99.90;;;;;;5093200;27;20490;-67
2023/01/27 05:22:32;;;;;;;73.10;38.57;;;3.30;99.90;;;;;;5103644;27;20394;-65
2023/01/27 05:25:20;;;;;;;72.27;40.07;;;3.20;99.90;;;;;;5089681;28;20239;-64
2023/01/27 05:28:09;;;;;;;75.10;39.10;;;3.20;99.90;;;;;;5090175;27;20233;-65
2023/01/27 05:31:02;;;;;;;83.97;41.07;;;3.10;99.90;;;;;;5115138;27;20238;-66
2023/01/27 05:33:53;;;;;;;78.03;40.33;;;3.10;99.90;;;;;;5093448;27;20222;-66
2023/01/27 05:36:42;;;;;;;71.33;40.53;;;3.00;99.90;;;;;;5118606;27;20220;-65
2023/01/27 05:39:31;;;;;;;79.93;40.17;;;3.00;99.90;;;;;;5085675;28;20365;-66
2023/01/27 05:42:20;;;;;;;76.43;39.77;;;3.00;99.90;;;;;;5089750;27;20233;-65
2023/01/27 05:45:10;;;;;;;73.67;39.77;;;3.10;99.90;;;;;;5094686;27;20706;-65
2023/01/27 05:47:58;;;;;;;76.43;40.00;;;3.20;99.90;;;;;;5092093;28;20239;-66
2023/01/27 05:50:59;;;;;;;77.73;39.97;;;3.30;99.90;;;;;;5097407;27;20223;-65
2023/01/27 05:53:47;;;;;;;79.33;42.20;;;3.20;99.90;;;;;;5090479;28;20230;-66
2023/01/27 05:56:36;;;;;;;88.97;41.30;;;3.20;99.90;;;;;;5092470;28;20227;-64
2023/01/27 05:59:25;;;;;;;77.27;40.47;;;3.20;99.90;;;;;;5093176;28;20218;-65
2023/01/27 06:02:14;;;;;;;79.80;39.77;;;3.00;99.90;;;;;;5092343;27;20256;-66
2023/01/27 06:05:03;;;;;;;81.37;40.93;;;3.00;99.90;;;;;;5096462;27;20227;-66
2023/01/27 06:07:53;;;;;;;80.43;42.37;;;3.10;99.90;;;;;;5093854;27;20234;-64
2023/01/27 06:10:45;;;;;;;72.83;39.87;;;3.20;99.90;;;;;;5094749;27;20226;-64
2023/01/27 06:13:34;;;;;;;71.97;37.63;;;3.20;99.90;;;;;;5096017;27;20313;-64
2023/01/27 06:16:23;;;;;;;72.03;39.53;;;3.10;99.90;;;;;;5094499;27;20761;-64
2023/01/27 06:19:12;;;;;;;75.97;39.30;;;3.30;99.90;;;;;;5093624;27;20227;-65
2023/01/27 06:22:01;;;;;;;74.47;39.13;;;3.40;99.90;;;;;;5092923;27;20606;-65
2023/01/27 06:24:51;;;;;;;73.87;37.70;;;3.10;99.90;;;;;;5098203;27;20572;-65
2023/01/27 06:27:40;;;;;;;77.87;38.47;;;3.10;99.90;;;;;;5090173;27;20343;-65
2023/01/27 06:30:30;;;;;;;79.30;38.40;;;2.90;99.90;;;;;;5090983;28;20226;-64
2023/01/27 06:33:18;;;;;;;78.17;38.93;;;3.00;99.90;;;;;;5092813;27;20588;-64
2023/01/27 06:36:10;;;;;;;76.93;37.67;;;3.00;99.90;;;;;;5088888;27;20245;-64
2023/01/27 06:38:58;;;;;;;69.77;36.37;;;3.00;99.90;;;;;;5096326;28;20226;-63
2023/01/27 06:41:49;;;;;;;70.07;36.17;;;2.70;99.90;;;;;;5094187;27;20218;-64
2023/01/27 06:44:38;;;;;;;76.47;37.67;;;2.90;99.90;;;;;;5090744;27;20242;-64
2023/01/27 06:47:27;;;;;;;74.50;39.27;;;2.90;99.90;;;;;;5095408;28;20219;-62
2023/01/27 06:50:21;;;;;;;71.67;37.27;;;2.90;99.90;;;;;;5090219;28;20748;-66
2023/01/27 06:53:10;;;;;;;71.47;37.27;;;2.80;99.90;;;;;;5091211;27;20267;-64
2023/01/27 06:56:01;;;;;;;66.53;36.47;;;2.80;99.90;;;;;;5099948;27;20230;-64
2023/01/27 06:58:51;;;;;;;66.47;35.37;;;2.70;99.90;;;;;;5101029;27;20505;-65
2023/01/27 07:01:39;;;;;;;64.83;33.90;;;2.70;99.90;;;;;;5095255;27;20270;-63
2023/01/27 07:04:29;;;;;;;63.83;33.93;;;2.60;99.90;;;;;;5093255;28;20595;-65
2023/01/27 07:07:18;;;;;;;66.80;33.90;;;2.50;99.90;;;;;;5091520;28;20227;-64
2023/01/27 07:10:08;;;;;;;63.37;32.97;;;2.60;99.90;;;;;;5093879;27;20289;-62
2023/01/27 07:13:05;;;;;;;63.17;33.53;;;2.70;99.90;;;;;;5087346;27;20227;-67
2023/01/27 07:15:56;;;;;;;70.20;35.50;;;2.70;99.90;;;;;;5087712;27;21080;-67
2023/01/27 07:18:45;;;;;;;65.80;33.50;;;2.70;99.90;;;;;;5096095;27;20780;-68
2023/01/27 07:21:34;;;;;;;61.37;34.00;;;2.50;99.90;;;;;;5086103;28;20226;-67
2023/01/27 07:24:22;;;;;;;65.10;34.10;;;2.40;99.90;;;;;;5088045;28;20632;-69
2023/01/27 07:27:11;;;;;;;60.57;33.70;;;2.50;99.90;;;;;;5090831;27;20219;-68
2023/01/27 07:30:00;;;;;;;68.83;35.40;;;2.60;99.90;;;;;;5081022;28;20230;-70
2023/01/27 07:32:54;;;;;;;64.63;34.53;;;2.90;99.90;;;;;;5091651;27;20280;-69
2023/01/27 07:35:42;;;;;;;66.30;34.50;;;2.70;99.90;;;;;;5086349;27;20214;-63
2023/01/27 07:38:32;;;;;;;66.43;34.20;;;2.80;99.90;;;;;;5084377;27;20222;-66
2023/01/27 07:41:21;;;;;;;61.60;33.27;;;2.90;99.90;;;;;;5094347;27;22081;-67
2023/01/27 07:44:10;;;;;;;60.13;31.57;;;3.10;99.90;;;;;;5088351;27;20326;-68
2023/01/27 07:47:00;;;;;;;61.90;32.17;;;3.00;99.90;;;;;;5087835;28;20233;-68
2023/01/27 07:49:50;;;;;;;61.70;33.40;;;2.90;99.90;;;;;;5091990;27;20610;-66
2023/01/27 07:52:38;;;;;;;54.53;30.17;;;3.00;99.90;;;;;;5099498;27;20230;-66
2023/01/27 07:55:27;;;;;;;57.23;30.63;;;3.00;99.90;;;;;;5086355;28;20347;-66
2023/01/27 07:58:16;;;;;;;60.83;31.47;;;3.20;99.90;;;;;;5093023;28;20234;-65
2023/01/27 08:01:06;;;;;;;57.60;32.83;;;3.20;99.90;;;;;;5092247;27;20222;-62
2023/01/27 08:03:55;;;;;;;54.63;30.13;;;3.40;99.90;;;;;;5088791;27;20295;-63
2023/01/27 08:06:45;;;;;;;51.87;27.67;;;3.10;99.90;;;;;;5092399;27;20246;-62
2023/01/27 08:09:34;;;;;;;47.53;27.27;;;3.10;99.90;;;;;;5080649;28;20582;-63
2023/01/27 08:12:23;;;;;;;49.40;26.47;;;3.40;99.90;;;;;;5085410;28;20222;-66
2023/01/27 08:15:12;;;;;;;50.17;26.43;;;3.50;99.90;;;;;;5088534;27;20288;-63
2023/01/27 08:18:02;;;;;;;51.13;25.83;;;3.00;99.90;;;;;;5084766;28;20215;-62
2023/01/27 08:20:53;;;;;;;41.27;24.23;;;3.10;99.90;;;;;;5092540;27;20594;-62
2023/01/27 08:23:43;;;;;;;49.17;25.07;;;3.20;99.90;;;;;;5080840;28;20215;-69
2023/01/27 08:26:32;;;;;;;44.67;24.30;;;3.10;99.90;;;;;;5088891;27;20229;-64
2023/01/27 08:29:20;;;;;;;43.47;25.47;;;3.20;99.90;;;;;;5090705;27;20230;-61
2023/01/27 08:32:10;;;;;;;38.43;22.57;;;3.20;99.90;;;;;;5093145;28;20235;-63
2023/01/27 08:35:02;;;;;;;40.03;23.00;;;3.10;99.90;;;;;;5089199;28;20706;-63
2023/01/27 08:37:51;;;;;;;40.37;24.17;;;3.10;99.90;;;;;;5086406;27;20243;-63
2023/01/27 08:40:42;;;;;;;46.80;26.13;;;3.10;99.90;;;;;;5093661;27;20361;-63
2023/01/27 08:43:31;;;;;;;39.07;22.63;;;3.20;99.90;;;;;;5093102;27;20218;-64
2023/01/27 08:46:20;;;;;;;43.10;25.47;;;3.20;99.90;;;;;;5083255;27;20239;-60
2023/01/27 08:49:08;;;;;;;40.57;23.40;;;3.50;99.90;;;;;;5090137;27;20226;-62
2023/01/27 08:51:57;;;;;;;43.30;23.53;;;3.30;99.90;;;;;;5123148;27;20312;-63
2023/01/27 08:54:46;;;;;;;46.20;25.73;;;3.10;99.90;;;;;;5102831;27;20214;-63
2023/01/27 08:57:36;;;;;;;49.83;25.70;;;3.20;99.90;;;;;;5091687;28;20236;-63
2023/01/27 09:00:25;;;;;;;44.43;25.40;;;3.10;99.90;;;;;;5091570;27;20707;-63
2023/01/27 09:03:14;;;;;;;47.20;25.60;;;3.60;99.90;;;;;;5094813;27;20275;-63
2023/01/27 09:06:03;;;;;;;37.90;23.63;;;3.40;99.90;;;;;;5091762;27;20242;-64
2023/01/27 09:11:58;;;;;;;46.30;25.07;;;3.70;99.90;;;;;;5089296;27;20263;-65
2023/01/27 09:14:48;;;;;;;43.13;24.40;;;3.70;99.90;;;;;;5090279;27;20971;-65
2023/01/27 09:17:37;;;;;;;43.77;26.07;;;3.70;99.90;;;;;;5090703;28;20719;-64
2023/01/27 09:20:26;;;;;;;44.10;24.37;;;3.60;99.90;;;;;;5087944;28;20208;-63
2023/01/27 09:23:14;;;;;;;39.60;22.53;;;3.80;99.90;;;;;;5095736;27;20230;-63
2023/01/27 09:26:03;;;;;;;42.37;24.63;;;3.70;99.90;;;;;;5091509;27;20235;-64
2023/01/27 09:28:52;;;;;;;38.47;21.57;;;3.60;99.90;;;;;;5087122;28;20361;-63
2023/01/27 09:31:42;;;;;;;40.93;23.60;;;3.70;99.90;;;;;;5100495;27;20222;-62
2023/01/27 09:34:31;;;;;;;40.60;22.63;;;3.90;99.90;;;;;;5097519;28;20243;-63
2023/01/27 09:37:20;;;;;;;45.47;24.03;;;4.30;99.90;;;;;;5098293;28;20273;-63
2023/01/27 09:40:18;;;;;;;39.87;23.23;;;4.30;99.90;;;;;;5088124;28;20223;-64
2023/01/27 09:43:32;;;;;;;37.37;22.13;;;4.30;99.90;;;;;;5093183;27;20230;-63
2023/01/27 09:46:57;;;;;;;40.93;23.73;;;4.50;99.90;;;;;;5092905;27;20222;-63
2023/01/27 09:50:05;;;;;;;38.27;22.87;;;4.40;99.90;;;;;;5097141;27;20753;-63
2023/01/27 09:53:25;;;;;;;41.10;23.27;;;4.70;99.90;;;;;;5100512;27;20234;-62
2023/01/27 09:56:22;;;;;;;35.07;21.63;;;4.70;99.90;;;;;;5090394;27;20230;-61
2023/01/27 09:59:23;;;;;;;40.40;23.87;;;4.80;99.90;;;;;;5097005;27;20356;-62
2023/01/27 10:02:27;;;;;;;37.97;22.57;;;5.00;99.90;;;;;;5102589;27;20233;-62
2023/01/27 10:05:40;;;;;;;27.23;15.57;;;4.80;99.90;;;;;;5092955;27;20234;-63
2023/01/27 10:08:53;;;;;;;30.37;17.20;;;4.70;99.90;;;;;;5098910;27;20699;-63
2023/01/27 10:11:51;;;;;;;32.47;19.73;;;4.60;99.90;;;;;;5092676;27;20700;-63
2023/01/27 10:14:48;;;;;;;29.20;17.00;;;5.10;99.90;;;;;;5090880;27;20268;-64
2023/01/27 10:17:46;;;;;;;31.10;19.03;;;5.00;99.90;;;;;;5095604;27;20303;-62
2023/01/27 10:20:41;;;;;;;29.40;19.70;;;4.80;99.90;;;;;;5098892;27;20231;-62
2023/01/27 10:23:42;;;;;;;31.00;19.57;;;4.80;99.90;;;;;;5105584;27;20245;-62
2023/01/27 10:26:35;;;;;;;35.20;21.00;;;4.80;99.90;;;;;;5091365;28;20218;-63
2023/01/27 10:29:26;;;;;;;37.60;20.40;;;4.90;99.90;;;;;;5099437;27;20238;-63
2023/01/27 10:32:25;;;;;;;31.23;18.93;;;4.90;99.90;;;;;;5089716;27;20668;-63
2023/01/27 10:35:19;;;;;;;31.27;18.10;;;4.60;99.90;;;;;;5093673;27;20285;-63
2023/01/27 10:38:17;;;;;;;30.40;18.33;;;4.20;99.90;;;;;;5095283;27;21008;-63
2023/01/27 10:41:18;;;;;;;32.10;18.87;;;4.30;99.90;;;;;;5122372;27;20230;-63
2023/01/27 10:44:37;;;;;;;32.20;19.83;;;4.50;99.90;;;;;;5106999;27;20253;-64
2023/01/27 10:47:42;;;;;;;32.53;19.50;;;4.60;99.90;;;;;;5091453;27;20310;-64
2023/01/27 10:50:37;;;;;;;31.47;18.97;;;4.80;99.90;;;;;;5092065;28;20310;-64
2023/01/27 10:53:32;;;;;;;31.37;18.63;;;4.10;99.90;;;;;;5092419;27;20243;-62
2023/01/27 10:56:31;;;;;;;30.17;18.53;;;4.10;99.90;;;;;;5093112;27;20678;-64
2023/01/27 10:59:27;;;;;;;32.33;18.47;;;3.80;99.90;;;;;;5100808;27;20567;-64
2023/01/27 11:02:25;;;;;;;34.87;18.77;;;3.90;99.90;;;;;;5088921;27;20223;-64
2023/01/27 11:05:18;;;;;;;31.37;18.33;;;4.20;99.90;;;;;;5086691;27;20223;-63
2023/01/27 11:08:16;;;;;;;37.60;19.13;;;4.30;99.90;;;;;;5081190;28;20699;-65
2023/01/27 11:14:18;;;;;;;39.83;20.73;;;4.00;99.90;;;;;;5080662;27;20214;-64
2023/01/27 11:17:16;;;;;;;34.53;20.00;;;3.90;99.90;;;;;;5088812;28;20218;-65
2023/01/27 11:20:12;;;;;;;33.23;20.47;;;3.90;99.90;;;;;;5086665;27;20321;-65
2023/01/27 11:23:10;;;;;;;36.30;19.93;;;3.70;99.90;;;;;;5084438;27;20363;-64
2023/01/27 11:26:07;;;;;;;41.27;22.70;;;3.70;99.90;;;;;;5111217;27;20928;-63
2023/01/27 11:29:08;;;;;;;43.83;25.37;;;4.00;99.90;;;;;;5085983;28;20567;-65
2023/01/27 11:32:03;;;;;;;43.40;22.77;;;3.70;99.90;;;;;;5089071;27;20914;-64
2023/01/27 11:35:01;;;;;;;42.00;24.80;;;3.70;99.90;;;;;;5091386;27;20218;-64
2023/01/27 11:37:52;;;;;;;47.97;27.87;;;3.90;99.90;;;;;;5088704;27;20215;-63
2023/01/27 11:40:54;;;;;;;46.43;26.90;;;3.80;99.90;;;;;;5114664;27;20241;-63
2023/01/27 11:43:44;;;;;;;48.90;26.17;;;3.50;99.90;;;;;;5085018;28;20636;-63
2023/01/27 11:46:35;;;;;;;49.87;27.10;;;3.80;99.90;;;;;;5086141;27;20223;-65
2023/01/27 11:49:27;;;;;;;54.50;28.30;;;3.70;99.90;;;;;;5089690;27;20334;-64
2023/01/27 11:52:19;;;;;;;48.07;26.87;;;3.70;99.90;;;;;;5086933;28;20356;-64
2023/01/27 11:55:16;;;;;;;48.37;27.80;;;3.70;99.90;;;;;;5084562;28;20224;-63
2023/01/27 11:58:13;;;;;;;46.33;26.50;;;3.70;99.90;;;;;;5109976;27;20303;-62
2023/01/27 12:01:09;;;;;;;44.10;25.40;;;3.60;99.90;;;;;;5089156;27;20223;-62
2023/01/27 12:04:03;;;;;;;47.77;24.80;;;3.60;99.90;;;;;;5088146;27;20246;-63
2023/01/27 12:06:56;;;;;;;42.30;23.70;;;3.70;99.90;;;;;;5113412;27;20231;-63
2023/01/27 12:09:45;;;;;;;43.20;24.13;;;3.90;99.90;;;;;;5085276;27;20219;-65
2023/01/27 12:12:37;;;;;;;36.13;22.03;;;4.10;99.90;;;;;;5091083;27;20222;-64
2023/01/27 12:15:29;;;;;;;37.50;22.20;;;3.60;99.90;;;;;;5093882;27;20324;-64
2023/01/27 12:18:22;;;;;;;41.40;24.40;;;3.70;99.90;;;;;;5087431;28;20227;-62
2023/01/27 12:21:11;;;;;;;46.60;26.13;;;3.80;99.90;;;;;;5087468;27;20871;-63
2023/01/27 12:24:01;;;;;;;48.13;26.47;;;3.80;99.90;;;;;;5086111;27;20268;-64
2023/01/27 12:26:53;;;;;;;52.47;29.80;;;3.90;99.90;;;;;;5106858;27;20246;-63
2023/01/27 12:29:47;;;;;;;47.80;28.70;;;4.10;99.90;;;;;;5090924;28;20787;-62
2023/01/27 12:32:40;;;;;;;50.17;28.73;;;4.20;99.90;;;;;;5102379;27;20237;-65
2023/01/27 12:35:34;;;;;;;51.03;29.23;;;4.20;99.90;;;;;;5094624;28;20360;-65
2023/01/27 12:38:26;;;;;;;51.40;29.70;;;4.10;99.90;;;;;;5090262;28;20223;-65
2023/01/27 12:41:22;;;;;;;54.20;30.43;;;4.00;99.90;;;;;;5086905;27;20231;-64
2023/01/27 12:44:17;;;;;;;60.80;31.47;;;4.00;99.90;;;;;;5090096;27;20222;-66
2023/01/27 12:47:23;;;;;;;56.43;31.47;;;3.60;99.90;;;;;;5086128;28;20234;-63
2023/01/27 12:50:23;;;;;;;49.97;30.03;;;3.70;99.90;;;;;;5087661;27;20223;-65
2023/01/27 12:53:15;;;;;;;60.30;32.17;;;3.90;99.90;;;;;;5088078;27;20307;-66
2023/01/27 12:56:12;;;;;;;53.70;30.67;;;3.90;99.90;;;;;;5088746;28;20322;-67
2023/01/27 12:59:02;;;;;;;63.90;32.50;;;3.60;99.90;;;;;;5077748;28;20257;-65
2023/01/27 13:02:00;;;;;;;58.97;32.33;;;3.60;99.90;;;;;;5114702;27;20554;-67
2023/01/27 13:04:53;;;;;;;55.87;28.07;;;3.70;99.90;;;;;;5088867;27;20926;-67
2023/01/27 13:07:45;;;;;;;53.23;29.67;;;3.60;99.90;;;;;;5090780;28;20800;-67
2023/01/27 13:10:35;;;;;;;58.10;29.80;;;3.40;99.90;;;;;;5089052;28;20227;-64
2023/01/27 13:13:26;;;;;;;54.07;30.20;;;3.30;99.90;;;;;;5090625;27;20585;-69
2023/01/27 13:16:26;;;;;;;55.10;30.70;;;3.30;99.90;;;;;;5093603;27;20224;-65
2023/01/27 13:19:18;;;;;;;55.03;29.80;;;3.40;99.90;;;;;;5092099;27;20218;-63
2023/01/27 13:22:10;;;;;;;55.87;29.90;;;3.70;99.90;;;;;;5098276;27;20262;-64
2023/01/27 13:25:02;;;;;;;55.03;31.90;;;3.90;99.90;;;;;;5094566;27;20597;-65
2023/01/27 13:27:57;;;;;;;66.87;35.13;;;3.90;99.90;;;;;;5116355;27;20454;-67
2023/01/27 13:30:50;;;;;;;61.50;35.00;;;3.90;99.90;;;;;;5089178;27;20219;-66
2023/01/27 13:33:46;;;;;;;68.63;36.73;;;3.90;99.90;;;;;;5086258;27;20219;-66
2023/01/27 13:36:40;;;;;;;68.33;34.10;;;3.70;99.90;;;;;;5099770;27;20231;-67
2023/01/27 13:39:43;;;;;;;67.27;34.57;;;3.50;99.90;;;;;;5100178;27;20234;-65
2023/01/27 13:42:39;;;;;;;60.17;33.57;;;3.30;99.90;;;;;;5090646;27;20239;-66
2023/01/27 13:45:39;;;;;;;64.80;33.03;;;3.40;99.90;;;;;;5087298;27;20978;-67
2023/01/27 13:48:32;;;;;;;69.07;34.97;;;3.50;99.90;;;;;;5121103;27;20222;-65
2023/01/27 13:51:23;;;;;;;69.20;33.47;;;3.80;99.90;;;;;;5089280;27;20210;-65
2023/01/27 13:54:15;;;;;;;60.03;32.97;;;3.50;99.90;;;;;;5100655;27;20503;-65
2023/01/27 13:57:35;;;;;;;64.37;32.83;;;3.30;99.90;;;;;;5093072;27;20220;-65
2023/01/27 14:00:32;;;;;;;69.73;35.20;;;3.20;99.90;;;;;;5099056;27;20227;-65
2023/01/27 14:04:04;;;;;;;68.70;34.70;;;3.30;99.90;;;;;;5094987;28;20724;-67
2023/01/27 14:07:02;;;;;;;72.33;36.40;;;3.30;99.90;;;;;;5069918;28;20243;-64
2023/01/27 14:10:03;;;;;;;72.00;37.30;;;3.40;99.90;;;;;;5092143;27;20360;-67
2023/01/27 14:13:07;;;;;;;73.80;37.73;;;3.40;99.90;;;;;;5092185;28;20222;-67
2023/01/27 14:16:07;;;;;;;76.53;37.30;;;3.40;99.90;;;;;;5086238;28;20231;-67
2023/01/27 14:19:02;;;;;;;66.20;34.47;;;3.40;99.90;;;;;;5094140;28;20222;-67
2023/01/27 14:21:57;;;;;;;69.67;36.27;;;3.20;99.90;;;;;;5096076;27;20219;-67
2023/01/27 14:24:52;;;;;;;67.33;35.80;;;3.20;99.90;;;;;;5092002;27;20299;-66
2023/01/27 14:27:46;;;;;;;67.23;33.80;;;3.20;99.90;;;;;;5091446;27;20311;-67
2023/01/27 14:30:40;;;;;;;68.87;34.77;;;3.00;99.90;;;;;;5085453;27;20222;-62
2023/01/27 14:33:43;;;;;;;77.50;36.87;;;3.20;99.90;;;;;;5090623;27;20220;-68
2023/01/27 14:36:40;;;;;;;76.07;37.33;;;3.00;99.90;;;;;;5109681;27;20575;-69
2023/01/27 14:39:38;;;;;;;77.53;37.17;;;3.00;99.90;;;;;;5090217;28;20334;-68
2023/01/27 14:42:36;;;;;;;68.77;35.93;;;3.10;99.90;;;;;;5093643;28;20325;-67
2023/01/27 14:45:28;;;;;;;81.07;38.90;;;2.90;99.90;;;;;;5091604;28;20219;-68
2023/01/27 14:48:40;;;;;;;76.83;37.17;;;3.00;99.90;;;;;;5110641;27;20243;-67
2023/01/27 14:51:38;;;;;;;70.50;36.43;;;3.00;99.90;;;;;;5090539;27;20814;-69
2023/01/27 14:54:52;;;;;;;69.87;34.83;;;3.20;99.90;;;;;;5091596;28;20227;-68
2023/01/27 14:57:51;;;;;;;77.90;36.67;;;3.10;99.90;;;;;;5090866;27;20848;-67
2023/01/27 15:00:49;;;;;;;72.27;36.40;;;3.20;99.90;;;;;;5080929;27;20739;-66
2023/01/27 15:04:07;;;;;;;72.73;36.13;;;3.20;99.90;;;;;;5086632;28;20223;-67
2023/01/27 15:07:06;;;;;;;74.80;36.27;;;3.20;99.90;;;;;;5086527;28;20318;-68
2023/01/27 15:10:06;;;;;;;72.93;35.77;;;3.40;99.90;;;;;;5090324;27;20219;-67
2023/01/27 15:13:38;;;;;;;71.40;35.53;;;3.30;99.90;;;;;;5085539;27;20238;-63
2023/01/27 15:16:38;;;;;;;70.93;34.17;;;3.00;99.90;;;;;;5090097;28;20231;-67
2023/01/27 15:19:47;;;;;;;69.80;34.30;;;2.80;99.90;;;;;;5088642;27;20595;-67
2023/01/27 15:23:01;;;;;;;69.57;34.90;;;2.70;99.90;;;;;;5095019;27;20243;-67
2023/01/27 15:25:53;;;;;;;73.20;36.07;;;2.60;99.90;;;;;;5083573;28;20219;-66